createdAt,value
2023-05-13T00:01:22.788Z,10.97
2023-05-13T00:03:49.743Z,11.06
2023-05-13T00:06:17.036Z,11.11
2023-05-13T00:08:44.136Z,11.12
2023-05-13T00:11:11.288Z,11.10
2023-05-13T00:13:38.144Z,11.07
2023-05-13T00:16:05.629Z,11.05
2023-05-13T00:18:33.249Z,10.98
2023-05-13T00:21:00.378Z,10.91
2023-05-13T00:23:27.346Z,10.92
2023-05-13T00:25:54.500Z,10.91
2023-05-13T00:28:21.738Z,10.88
2023-05-13T00:30:49.590Z,10.87
2023-05-13T00:33:16.469Z,10.86
2023-05-13T00:35:44.669Z,10.88
2023-05-13T00:38:16.869Z,10.90
2023-05-13T00:40:45.157Z,10.90
2023-05-13T00:43:11.990Z,10.92
2023-05-13T00:45:39.191Z,10.93
2023-05-13T00:48:07.527Z,10.92
2023-05-13T00:50:34.810Z,10.90
2023-05-13T00:53:04.252Z,10.85
2023-05-13T00:55:31.095Z,10.81
2023-05-13T00:57:57.953Z,10.78
2023-05-13T01:00:25.190Z,10.67
2023-05-13T01:03:06.918Z,10.56
2023-05-13T01:06:09.043Z,10.49
2023-05-13T01:08:58.718Z,10.41
2023-05-13T01:11:30.093Z,10.35
2023-05-13T01:14:05.930Z,10.28
2023-05-13T01:16:48.460Z,10.23
2023-05-13T01:19:42.205Z,10.32
2023-05-13T01:22:09.168Z,10.43
2023-05-13T01:24:36.570Z,10.49
2023-05-13T01:27:04.154Z,10.48
2023-05-13T01:29:31.210Z,10.36
2023-05-13T01:32:00.895Z,10.28
2023-05-13T01:34:29.289Z,10.25
2023-05-13T01:36:56.939Z,10.26
2023-05-13T01:39:24.713Z,10.28
2023-05-13T01:41:52.070Z,10.30
2023-05-13T01:44:18.898Z,10.29
2023-05-13T01:46:47.526Z,10.24
2023-05-13T01:49:14.617Z,10.24
2023-05-13T01:51:41.884Z,10.28
2023-05-13T01:54:09.226Z,10.34
2023-05-13T01:56:36.376Z,10.36
2023-05-13T01:59:03.430Z,10.33
2023-05-13T02:01:30.384Z,10.28
2023-05-13T02:04:00.415Z,10.28
2023-05-13T02:06:28.453Z,10.24
2023-05-13T02:08:55.388Z,10.14
2023-05-13T02:11:22.840Z,10.07
2023-05-13T02:13:49.700Z,10.04
2023-05-13T02:16:20.769Z,10.07
2023-05-13T02:18:48.036Z,10.14
2023-05-13T02:21:15.029Z,10.20
2023-05-13T02:23:42.067Z,10.23
2023-05-13T02:26:09.110Z,10.27
2023-05-13T02:28:36.263Z,10.32
2023-05-13T02:31:03.410Z,10.35
2023-05-13T02:33:30.359Z,10.38
2023-05-13T02:35:57.184Z,10.41
2023-05-13T02:38:24.032Z,10.35
2023-05-13T02:40:51.083Z,10.25
2023-05-13T02:43:18.338Z,10.17
2023-05-13T02:45:46.837Z,10.09
2023-05-13T02:48:13.749Z,10.03
2023-05-13T02:50:41.325Z,10.06
2023-05-13T02:53:08.249Z,10.15
2023-05-13T02:55:35.095Z,10.24
2023-05-13T02:58:01.822Z,10.31
2023-05-13T03:00:28.668Z,10.33
2023-05-13T03:02:56.373Z,10.35
2023-05-13T03:05:23.487Z,10.40
2023-05-13T03:07:50.326Z,10.42
2023-05-13T03:10:17.455Z,10.37
2023-05-13T03:12:44.300Z,10.30
2023-05-13T03:15:11.882Z,10.25
2023-05-13T03:17:38.781Z,10.24
2023-05-13T03:20:06.659Z,10.25
2023-05-13T03:22:33.822Z,10.30
2023-05-13T03:25:01.087Z,10.40
2023-05-13T03:27:27.916Z,10.49
2023-05-13T03:29:54.740Z,10.58
2023-05-13T03:32:21.715Z,10.64
2023-05-13T03:34:48.630Z,10.69
2023-05-13T03:37:15.492Z,10.71
2023-05-13T03:39:42.309Z,10.74
2023-05-13T03:42:09.246Z,10.78
2023-05-13T03:44:36.309Z,10.80
2023-05-13T03:47:03.184Z,10.82
2023-05-13T03:49:30.084Z,10.73
2023-05-13T03:51:56.916Z,10.61
2023-05-13T03:54:23.869Z,10.55
2023-05-13T03:56:50.703Z,10.51
2023-05-13T03:59:17.558Z,10.54
2023-05-13T04:01:44.436Z,10.61
2023-05-13T04:04:11.329Z,10.67
2023-05-13T04:06:38.179Z,10.70
2023-05-13T04:09:05.034Z,10.76
2023-05-13T04:11:33.081Z,10.81
2023-05-13T04:13:59.924Z,10.84
2023-05-13T04:16:26.882Z,10.76
2023-05-13T04:18:53.784Z,10.69
2023-05-13T04:21:20.969Z,10.58
2023-05-13T04:23:48.213Z,10.61
2023-05-13T04:26:15.041Z,10.62
2023-05-13T04:28:41.896Z,10.56
2023-05-13T04:31:08.824Z,10.48
2023-05-13T04:33:35.685Z,10.43
2023-05-13T04:36:02.510Z,10.41
2023-05-13T04:38:29.361Z,10.44
2023-05-13T04:40:56.287Z,10.45
2023-05-13T04:43:23.324Z,10.52
2023-05-13T04:45:50.192Z,10.60
2023-05-13T04:48:17.332Z,10.70
2023-05-13T04:50:48.165Z,10.69
2023-05-13T04:53:16.274Z,10.68
2023-05-13T04:55:43.201Z,10.64
2023-05-13T04:58:10.006Z,10.62
2023-05-13T05:00:36.959Z,10.64
2023-05-13T05:03:03.816Z,10.62
2023-05-13T05:05:30.840Z,10.60
2023-05-13T05:07:57.710Z,10.60
2023-05-13T05:10:24.525Z,10.62
2023-05-13T05:12:51.365Z,10.66
2023-05-13T05:15:18.217Z,10.68
2023-05-13T05:17:46.047Z,10.75
2023-05-13T05:20:13.894Z,10.81
2023-05-13T05:22:42.441Z,10.85
2023-05-13T05:25:10.408Z,10.90
2023-05-13T05:27:37.226Z,10.95
2023-05-13T05:30:05.023Z,11.03
2023-05-13T05:32:31.960Z,11.00
2023-05-13T05:35:02.371Z,11.02
2023-05-13T05:37:30.495Z,10.99
2023-05-13T05:39:57.367Z,10.95
2023-05-13T05:42:24.195Z,11.00
2023-05-13T05:44:51.042Z,11.14
2023-05-13T05:47:18.228Z,11.26
2023-05-13T05:49:45.232Z,11.36
2023-05-13T05:52:13.312Z,11.41
2023-05-13T05:54:40.470Z,11.51
2023-05-13T05:57:07.425Z,11.54
2023-05-13T05:59:34.982Z,11.55
2023-05-13T06:02:01.931Z,11.60
2023-05-13T06:04:29.015Z,11.64
2023-05-13T06:06:55.910Z,11.63
2023-05-13T06:09:22.828Z,11.65
2023-05-13T06:11:49.664Z,11.65
2023-05-13T06:14:17.730Z,11.67
2023-05-13T06:16:44.903Z,11.71
2023-05-13T06:19:18.528Z,11.75
2023-05-13T06:21:53.448Z,11.82
2023-05-13T06:24:28.291Z,11.89
2023-05-13T06:26:59.415Z,11.98
2023-05-13T06:29:35.507Z,11.92
2023-05-13T06:32:08.100Z,11.98
2023-05-13T06:34:43.452Z,12.13
2023-05-13T06:37:18.947Z,12.24
2023-05-13T06:39:46.764Z,12.29
2023-05-13T06:42:14.359Z,12.42
2023-05-13T06:44:42.380Z,12.61
2023-05-13T06:47:12.291Z,12.87
2023-05-13T06:49:39.717Z,13.16
2023-05-13T06:52:09.098Z,13.53
2023-05-13T06:54:36.032Z,13.85
2023-05-13T06:57:06.051Z,14.10
2023-05-13T06:59:33.359Z,14.26
2023-05-13T07:02:00.400Z,14.27
2023-05-13T07:04:29.801Z,14.57
2023-05-13T07:06:57.644Z,14.75
2023-05-13T07:09:24.717Z,14.85
2023-05-13T07:11:52.062Z,15.09
2023-05-13T07:14:20.235Z,15.43
2023-05-13T07:16:47.410Z,15.74
2023-05-13T07:19:14.579Z,16.07
2023-05-13T07:21:41.796Z,16.26
2023-05-13T07:24:08.721Z,16.37
2023-05-13T07:26:35.595Z,16.46
2023-05-13T07:29:04.292Z,16.55
2023-05-13T07:31:31.290Z,16.58
2023-05-13T07:33:58.230Z,16.85
2023-05-13T07:36:25.232Z,17.02
2023-05-13T07:38:52.210Z,17.29
2023-05-13T07:41:19.274Z,17.50
2023-05-13T07:43:46.313Z,17.74
2023-05-13T07:46:13.319Z,17.78
2023-05-13T07:48:40.394Z,17.90
2023-05-13T07:51:07.407Z,17.92
2023-05-13T07:53:36.142Z,18.05
2023-05-13T18:33:53.244Z,15.25
2023-05-13T18:36:20.752Z,15.13
2023-05-13T18:38:48.386Z,15.04
2023-05-13T18:41:16.478Z,14.95
2023-05-13T18:43:43.538Z,14.87
2023-05-13T18:46:10.635Z,14.78
2023-05-13T18:48:37.796Z,14.70
2023-05-13T18:51:04.887Z,14.65
2023-05-13T18:53:32.198Z,14.60
2023-05-13T18:55:59.172Z,14.57
2023-05-13T18:58:27.726Z,14.49
2023-05-13T19:00:54.730Z,14.41
2023-05-13T19:03:22.284Z,14.33
2023-05-13T19:05:49.559Z,14.26
2023-05-13T19:08:16.853Z,14.18
2023-05-13T19:10:44.314Z,14.09
2023-05-13T19:13:11.396Z,14.04
2023-05-13T19:15:38.673Z,13.98
2023-05-13T19:18:05.797Z,13.94
2023-05-13T19:20:33.086Z,13.86
2023-05-13T19:23:00.159Z,13.77
2023-05-13T19:25:27.154Z,13.69
2023-05-13T19:27:54.282Z,13.59
2023-05-13T19:30:21.685Z,13.51
2023-05-13T19:32:49.217Z,13.45
2023-05-13T19:35:16.717Z,13.37
2023-05-13T19:37:44.171Z,13.31
2023-05-13T19:40:11.418Z,13.25
2023-05-13T19:42:38.470Z,13.19
2023-05-13T19:45:06.637Z,13.15
2023-05-13T19:47:34.777Z,13.11
2023-05-13T19:50:02.066Z,13.05
2023-05-13T19:52:28.992Z,12.98
2023-05-13T19:54:55.855Z,12.94
2023-05-13T19:57:22.882Z,12.91
2023-05-13T19:59:49.869Z,12.86
2023-05-13T20:02:17.458Z,12.84
2023-05-13T20:04:44.538Z,12.78
2023-05-13T20:07:11.604Z,12.74
2023-05-13T20:09:38.552Z,12.71
2023-05-13T20:12:06.137Z,12.66
2023-05-13T20:14:47.267Z,12.63
2023-05-13T20:17:19.193Z,12.58
2023-05-13T20:19:49.987Z,12.50
2023-05-13T20:22:21.908Z,12.45
2023-05-13T20:24:52.626Z,12.41
2023-05-13T20:27:19.742Z,12.34
2023-05-13T20:29:48.317Z,12.26
2023-05-13T20:32:25.104Z,12.22
2023-05-13T20:34:56.540Z,12.20
2023-05-13T20:37:24.180Z,12.16
2023-05-13T20:39:51.515Z,12.13
2023-05-13T20:42:18.548Z,12.09
2023-05-13T20:44:46.627Z,12.02
2023-05-13T20:47:16.725Z,11.99
2023-05-13T20:49:44.684Z,11.94
2023-05-13T20:52:18.640Z,11.86
2023-05-13T20:54:46.036Z,11.80
2023-05-13T20:57:13.060Z,11.75
2023-05-13T20:59:40.360Z,11.67
2023-05-13T21:02:08.204Z,11.61
2023-05-13T21:04:36.955Z,11.53
2023-05-13T21:07:07.454Z,11.51
2023-05-13T21:09:34.278Z,11.51
2023-05-13T21:12:01.560Z,11.46
2023-05-13T21:14:28.467Z,11.40
2023-05-13T21:16:55.877Z,11.36
2023-05-13T21:19:25.058Z,11.31
2023-05-13T21:21:52.428Z,11.28
2023-05-13T21:24:19.856Z,11.23
2023-05-13T21:26:47.950Z,11.14
2023-05-13T21:29:16.219Z,11.07
2023-05-13T21:31:44.502Z,11.05
2023-05-13T21:34:11.457Z,11.00
2023-05-13T21:36:39.615Z,10.97
2023-05-13T21:39:07.567Z,10.91
2023-05-13T21:41:34.482Z,10.86
2023-05-13T21:44:01.423Z,10.82
2023-05-13T21:46:28.675Z,10.80
2023-05-13T21:48:55.874Z,10.74
2023-05-13T21:51:22.985Z,10.67
2023-05-13T21:53:49.886Z,10.62
2023-05-13T21:56:16.947Z,10.58
2023-05-13T21:58:44.801Z,10.57
2023-05-13T22:01:12.073Z,10.56
2023-05-13T22:03:49.643Z,10.50
2023-05-13T22:06:33.648Z,10.42
2023-05-13T22:09:15.571Z,10.34
2023-05-13T22:11:54.190Z,10.27
2023-05-13T22:14:21.062Z,10.22
2023-05-13T22:17:00.893Z,10.20
2023-05-13T22:19:35.734Z,10.21
2023-05-13T22:22:02.854Z,10.20
2023-05-13T22:24:30.140Z,10.17
2023-05-13T22:26:57.156Z,10.18
2023-05-13T22:29:23.989Z,10.19
2023-05-13T22:31:52.087Z,10.20
2023-05-13T22:34:18.904Z,10.20
2023-05-13T22:36:45.788Z,10.19
2023-05-13T22:39:13.832Z,10.13
2023-05-13T22:41:40.972Z,10.10
2023-05-13T22:44:09.683Z,10.12
2023-05-13T22:46:37.390Z,10.13
2023-05-13T22:49:07.269Z,10.11
2023-05-13T22:51:34.755Z,10.09
2023-05-13T22:54:02.274Z,10.09
2023-05-13T22:56:29.646Z,10.01
2023-05-13T22:58:56.728Z,9.97
2023-05-13T23:01:23.820Z,9.92
2023-05-13T23:03:50.855Z,9.88
2023-05-13T23:06:17.672Z,9.88
2023-05-13T23:08:44.639Z,9.89
2023-05-13T23:11:11.570Z,9.89
2023-05-13T23:13:38.486Z,9.80
2023-05-13T23:16:05.884Z,9.72
2023-05-13T23:18:34.496Z,9.65
2023-05-13T23:21:03.038Z,9.61
2023-05-13T23:23:30.256Z,9.57
2023-05-13T23:25:57.428Z,9.51
2023-05-13T23:28:24.381Z,9.48
2023-05-13T23:30:54.661Z,9.47
2023-05-13T23:33:21.501Z,9.48
2023-05-13T23:35:55.218Z,9.46
2023-05-13T23:38:22.924Z,9.38
2023-05-13T23:40:49.808Z,9.31
2023-05-13T23:43:16.850Z,9.31
2023-05-13T23:45:43.790Z,9.35
2023-05-13T23:48:11.304Z,9.32
2023-05-13T23:50:38.621Z,9.28
2023-05-13T23:53:06.054Z,9.27
2023-05-13T23:55:33.414Z,9.24
2023-05-13T23:58:00.252Z,9.22
